sensor_id;sensor_type;location;lat;lon;timestamp;P1;durP1;ratioP1;P2;durP2;ratioP2
7883;SDS011;3987;51.458;7.238;2022-07-01T00:00:23;15.07;;;13.97;;
7883;SDS011;3987;51.458;7.238;2022-07-01T00:02:49;14.53;;;13.57;;
7883;SDS011;3987;51.458;7.238;2022-07-01T00:05:14;14.77;;;13.77;;
7883;SDS011;3987;51.458;7.238;2022-07-01T00:07:43;14.73;;;13.73;;
7883;SDS011;3987;51.458;7.238;2022-07-01T00:10:09;14.43;;;13.63;;
7883;SDS011;3987;51.458;7.238;2022-07-01T00:12:34;14.90;;;13.90;;
7883;SDS011;3987;51.458;7.238;2022-07-01T00:15:00;14.60;;;13.60;;
7883;SDS011;3987;51.458;7.238;2022-07-01T00:17:25;15.47;;;14.37;;
7883;SDS011;3987;51.458;7.238;2022-07-01T00:19:50;14.70;;;13.70;;
7883;SDS011;3987;51.458;7.238;2022-07-01T00:22:16;15.60;;;14.30;;
7883;SDS011;3987;51.458;7.238;2022-07-01T00:24:41;14.30;;;13.40;;
7883;SDS011;3987;51.458;7.238;2022-07-01T00:27:07;15.17;;;14.00;;
7883;SDS011;3987;51.458;7.238;2022-07-01T00:29:33;15.30;;;14.20;;
7883;SDS011;3987;51.458;7.238;2022-07-01T00:31:59;15.40;;;14.33;;
7883;SDS011;3987;51.458;7.238;2022-07-01T00:34:24;16.87;;;15.37;;
7883;SDS011;3987;51.458;7.238;2022-07-01T00:36:50;15.20;;;14.07;;
7883;SDS011;3987;51.458;7.238;2022-07-01T00:39:15;15.60;;;14.50;;
7883;SDS011;3987;51.458;7.238;2022-07-01T00:41:41;16.00;;;14.90;;
7883;SDS011;3987;51.458;7.238;2022-07-01T00:44:15;17.57;;;15.87;;
7883;SDS011;3987;51.458;7.238;2022-07-01T00:46:41;18.07;;;16.43;;
7883;SDS011;3987;51.458;7.238;2022-07-01T00:49:07;16.23;;;14.93;;
7883;SDS011;3987;51.458;7.238;2022-07-01T00:51:32;17.70;;;16.20;;
7883;SDS011;3987;51.458;7.238;2022-07-01T00:53:58;17.47;;;16.07;;
7883;SDS011;3987;51.458;7.238;2022-07-01T00:56:24;16.63;;;15.43;;
7883;SDS011;3987;51.458;7.238;2022-07-01T00:58:49;16.83;;;15.50;;
7883;SDS011;3987;51.458;7.238;2022-07-01T01:01:15;17.53;;;16.03;;
7883;SDS011;3987;51.458;7.238;2022-07-01T01:03:41;18.70;;;17.10;;
7883;SDS011;3987;51.458;7.238;2022-07-01T01:06:06;19.40;;;17.57;;
7883;SDS011;3987;51.458;7.238;2022-07-01T01:08:33;18.97;;;17.37;;
7883;SDS011;3987;51.458;7.238;2022-07-01T01:10:58;18.43;;;16.73;;
7883;SDS011;3987;51.458;7.238;2022-07-01T01:13:24;19.00;;;17.30;;
7883;SDS011;3987;51.458;7.238;2022-07-01T01:15:49;19.33;;;17.53;;
7883;SDS011;3987;51.458;7.238;2022-07-01T01:18:15;18.90;;;17.17;;
7883;SDS011;3987;51.458;7.238;2022-07-01T01:20:40;17.93;;;16.43;;
7883;SDS011;3987;51.458;7.238;2022-07-01T01:23:06;19.53;;;17.63;;
7883;SDS011;3987;51.458;7.238;2022-07-01T01:25:32;17.83;;;16.17;;
7883;SDS011;3987;51.458;7.238;2022-07-01T01:27:58;18.43;;;16.73;;
7883;SDS011;3987;51.458;7.238;2022-07-01T01:30:24;19.67;;;17.87;;
7883;SDS011;3987;51.458;7.238;2022-07-01T01:32:49;18.43;;;16.73;;
7883;SDS011;3987;51.458;7.238;2022-07-01T01:35:15;19.17;;;17.40;;
7883;SDS011;3987;51.458;7.238;2022-07-01T01:37:40;19.27;;;17.33;;
7883;SDS011;3987;51.458;7.238;2022-07-01T01:40:06;19.37;;;17.10;;
7883;SDS011;3987;51.458;7.238;2022-07-01T01:42:32;20.03;;;18.23;;
7883;SDS011;3987;51.458;7.238;2022-07-01T01:44:57;17.93;;;16.23;;
7883;SDS011;3987;51.458;7.238;2022-07-01T01:47:23;19.07;;;17.13;;
7883;SDS011;3987;51.458;7.238;2022-07-01T01:49:48;17.17;;;15.77;;
7883;SDS011;3987;51.458;7.238;2022-07-01T01:52:13;17.90;;;16.23;;
7883;SDS011;3987;51.458;7.238;2022-07-01T01:54:39;16.17;;;14.67;;
7883;SDS011;3987;51.458;7.238;2022-07-01T01:57:04;16.23;;;14.83;;
7883;SDS011;3987;51.458;7.238;2022-07-01T01:59:30;15.07;;;13.90;;
7883;SDS011;3987;51.458;7.238;2022-07-01T02:01:55;15.33;;;14.13;;
7883;SDS011;3987;51.458;7.238;2022-07-01T02:04:21;15.93;;;14.43;;
7883;SDS011;3987;51.458;7.238;2022-07-01T02:06:48;13.83;;;12.87;;
7883;SDS011;3987;51.458;7.238;2022-07-01T02:09:14;15.80;;;14.20;;
7883;SDS011;3987;51.458;7.238;2022-07-01T02:11:40;14.03;;;13.03;;
7883;SDS011;3987;51.458;7.238;2022-07-01T02:14:05;13.57;;;12.17;;
7883;SDS011;3987;51.458;7.238;2022-07-01T02:16:31;13.10;;;12.17;;
7883;SDS011;3987;51.458;7.238;2022-07-01T02:18:56;14.10;;;12.80;;
7883;SDS011;3987;51.458;7.238;2022-07-01T02:21:22;12.30;;;11.30;;
7883;SDS011;3987;51.458;7.238;2022-07-01T02:23:47;11.63;;;10.93;;
7883;SDS011;3987;51.458;7.238;2022-07-01T02:26:13;12.57;;;11.63;;
7883;SDS011;3987;51.458;7.238;2022-07-01T02:28:38;13.50;;;12.13;;
7883;SDS011;3987;51.458;7.238;2022-07-01T02:31:04;11.67;;;10.87;;
7883;SDS011;3987;51.458;7.238;2022-07-01T02:33:29;12.53;;;11.43;;
7883;SDS011;3987;51.458;7.238;2022-07-01T02:35:55;11.73;;;10.73;;
7883;SDS011;3987;51.458;7.238;2022-07-01T02:38:21;10.70;;;9.93;;
7883;SDS011;3987;51.458;7.238;2022-07-01T02:40:47;10.10;;;9.40;;
7883;SDS011;3987;51.458;7.238;2022-07-01T02:43:12;8.37;;;8.03;;
7883;SDS011;3987;51.458;7.238;2022-07-01T02:45:38;8.00;;;7.60;;
7883;SDS011;3987;51.458;7.238;2022-07-01T02:48:04;8.33;;;7.73;;
7883;SDS011;3987;51.458;7.238;2022-07-01T02:50:29;8.73;;;8.17;;
7883;SDS011;3987;51.458;7.238;2022-07-01T02:52:55;9.07;;;8.33;;
7883;SDS011;3987;51.458;7.238;2022-07-01T02:55:20;8.80;;;8.00;;
7883;SDS011;3987;51.458;7.238;2022-07-01T02:57:46;8.33;;;7.73;;
7883;SDS011;3987;51.458;7.238;2022-07-01T03:00:14;8.97;;;8.20;;
7883;SDS011;3987;51.458;7.238;2022-07-01T03:02:40;9.57;;;8.73;;
7883;SDS011;3987;51.458;7.238;2022-07-01T03:05:05;10.70;;;8.37;;
7883;SDS011;3987;51.458;7.238;2022-07-01T03:07:31;8.90;;;8.10;;
7883;SDS011;3987;51.458;7.238;2022-07-01T03:09:57;8.67;;;7.60;;
7883;SDS011;3987;51.458;7.238;2022-07-01T03:12:23;9.30;;;8.37;;
7883;SDS011;3987;51.458;7.238;2022-07-01T03:14:58;8.63;;;8.03;;
7883;SDS011;3987;51.458;7.238;2022-07-01T03:17:45;8.73;;;7.80;;
7883;SDS011;3987;51.458;7.238;2022-07-01T03:20:14;8.63;;;8.03;;
7883;SDS011;3987;51.458;7.238;2022-07-01T03:22:42;8.67;;;7.83;;
7883;SDS011;3987;51.458;7.238;2022-07-01T03:25:08;8.40;;;7.53;;
7883;SDS011;3987;51.458;7.238;2022-07-01T03:27:34;8.93;;;8.20;;
7883;SDS011;3987;51.458;7.238;2022-07-01T03:30:00;8.33;;;7.63;;
7883;SDS011;3987;51.458;7.238;2022-07-01T03:32:26;9.33;;;8.53;;
7883;SDS011;3987;51.458;7.238;2022-07-01T03:34:52;8.47;;;7.87;;
7883;SDS011;3987;51.458;7.238;2022-07-01T03:37:18;8.80;;;8.17;;
7883;SDS011;3987;51.458;7.238;2022-07-01T03:39:44;8.67;;;7.93;;
7883;SDS011;3987;51.458;7.238;2022-07-01T03:42:10;8.60;;;7.67;;
7883;SDS011;3987;51.458;7.238;2022-07-01T03:44:36;8.20;;;7.47;;
7883;SDS011;3987;51.458;7.238;2022-07-01T03:47:02;9.23;;;8.53;;
7883;SDS011;3987;51.458;7.238;2022-07-01T03:49:28;10.03;;;7.60;;
7883;SDS011;3987;51.458;7.238;2022-07-01T03:51:54;8.70;;;8.10;;
7883;SDS011;3987;51.458;7.238;2022-07-01T03:54:19;8.73;;;8.07;;
7883;SDS011;3987;51.458;7.238;2022-07-01T03:56:54;9.07;;;8.37;;
7883;SDS011;3987;51.458;7.238;2022-07-01T03:59:33;9.90;;;9.10;;
7883;SDS011;3987;51.458;7.238;2022-07-01T04:02:01;9.27;;;8.43;;
7883;SDS011;3987;51.458;7.238;2022-07-01T04:04:26;9.67;;;8.80;;
7883;SDS011;3987;51.458;7.238;2022-07-01T04:06:52;9.63;;;8.90;;
7883;SDS011;3987;51.458;7.238;2022-07-01T04:09:18;9.53;;;8.77;;
7883;SDS011;3987;51.458;7.238;2022-07-01T04:11:44;9.70;;;8.63;;
7883;SDS011;3987;51.458;7.238;2022-07-01T04:14:10;12.20;;;8.80;;
7883;SDS011;3987;51.458;7.238;2022-07-01T04:16:36;9.30;;;8.53;;
7883;SDS011;3987;51.458;7.238;2022-07-01T04:19:02;9.63;;;8.73;;
7883;SDS011;3987;51.458;7.238;2022-07-01T04:21:27;9.40;;;8.80;;
7883;SDS011;3987;51.458;7.238;2022-07-01T04:24:11;9.50;;;8.47;;
7883;SDS011;3987;51.458;7.238;2022-07-01T04:26:38;9.23;;;8.57;;
7883;SDS011;3987;51.458;7.238;2022-07-01T04:29:04;9.27;;;8.53;;
7883;SDS011;3987;51.458;7.238;2022-07-01T04:31:30;9.60;;;8.97;;
7883;SDS011;3987;51.458;7.238;2022-07-01T04:33:56;9.87;;;8.97;;
7883;SDS011;3987;51.458;7.238;2022-07-01T04:36:21;9.83;;;8.97;;
7883;SDS011;3987;51.458;7.238;2022-07-01T04:38:47;9.87;;;9.07;;
7883;SDS011;3987;51.458;7.238;2022-07-01T04:41:12;9.40;;;8.80;;
7883;SDS011;3987;51.458;7.238;2022-07-01T04:43:57;9.57;;;8.73;;
7883;SDS011;3987;51.458;7.238;2022-07-01T04:46:22;9.47;;;8.60;;
7883;SDS011;3987;51.458;7.238;2022-07-01T04:48:47;8.97;;;8.37;;
7883;SDS011;3987;51.458;7.238;2022-07-01T04:51:13;8.90;;;8.00;;
7883;SDS011;3987;51.458;7.238;2022-07-01T04:53:39;8.90;;;8.07;;
7883;SDS011;3987;51.458;7.238;2022-07-01T04:56:04;9.70;;;9.00;;
7883;SDS011;3987;51.458;7.238;2022-07-01T04:58:29;9.17;;;8.77;;
7883;SDS011;3987;51.458;7.238;2022-07-01T05:00:55;9.70;;;8.77;;
7883;SDS011;3987;51.458;7.238;2022-07-01T05:03:20;8.67;;;8.07;;
7883;SDS011;3987;51.458;7.238;2022-07-01T05:05:46;9.47;;;8.97;;
7883;SDS011;3987;51.458;7.238;2022-07-01T05:08:11;9.37;;;8.77;;
7883;SDS011;3987;51.458;7.238;2022-07-01T05:10:36;8.87;;;8.20;;
7883;SDS011;3987;51.458;7.238;2022-07-01T05:13:02;9.50;;;8.63;;
7883;SDS011;3987;51.458;7.238;2022-07-01T05:15:28;9.63;;;8.93;;
7883;SDS011;3987;51.458;7.238;2022-07-01T05:17:53;11.33;;;9.00;;
7883;SDS011;3987;51.458;7.238;2022-07-01T05:20:38;9.67;;;9.03;;
7883;SDS011;3987;51.458;7.238;2022-07-01T05:23:22;10.20;;;9.13;;
7883;SDS011;3987;51.458;7.238;2022-07-01T05:25:47;12.70;;;8.33;;
7883;SDS011;3987;51.458;7.238;2022-07-01T05:28:13;8.70;;;7.90;;
7883;SDS011;3987;51.458;7.238;2022-07-01T05:30:38;8.73;;;7.93;;
7883;SDS011;3987;51.458;7.238;2022-07-01T05:33:04;8.97;;;8.37;;
7883;SDS011;3987;51.458;7.238;2022-07-01T05:35:29;8.53;;;7.83;;
7883;SDS011;3987;51.458;7.238;2022-07-01T05:37:56;8.10;;;7.60;;
7883;SDS011;3987;51.458;7.238;2022-07-01T05:40:21;7.73;;;7.13;;
7883;SDS011;3987;51.458;7.238;2022-07-01T05:42:46;8.17;;;7.63;;
7883;SDS011;3987;51.458;7.238;2022-07-01T05:45:12;8.37;;;7.60;;
7883;SDS011;3987;51.458;7.238;2022-07-01T05:47:37;8.17;;;7.53;;
7883;SDS011;3987;51.458;7.238;2022-07-01T05:50:03;8.97;;;8.17;;
7883;SDS011;3987;51.458;7.238;2022-07-01T05:52:28;8.17;;;7.67;;
7883;SDS011;3987;51.458;7.238;2022-07-01T05:54:54;8.10;;;7.23;;
7883;SDS011;3987;51.458;7.238;2022-07-01T05:57:20;8.43;;;7.43;;
7883;SDS011;3987;51.458;7.238;2022-07-01T05:59:45;9.70;;;7.73;;
7883;SDS011;3987;51.458;7.238;2022-07-01T06:02:11;11.13;;;9.30;;
7883;SDS011;3987;51.458;7.238;2022-07-01T06:04:36;10.63;;;9.93;;
7883;SDS011;3987;51.458;7.238;2022-07-01T06:07:01;13.87;;;10.03;;
7883;SDS011;3987;51.458;7.238;2022-07-01T06:09:27;12.83;;;9.90;;
7883;SDS011;3987;51.458;7.238;2022-07-01T06:11:52;10.60;;;9.70;;
7883;SDS011;3987;51.458;7.238;2022-07-01T06:14:18;8.37;;;7.83;;
7883;SDS011;3987;51.458;7.238;2022-07-01T06:16:43;11.90;;;9.30;;
7883;SDS011;3987;51.458;7.238;2022-07-01T06:19:09;9.73;;;9.10;;
7883;SDS011;3987;51.458;7.238;2022-07-01T06:21:34;9.53;;;8.73;;
7883;SDS011;3987;51.458;7.238;2022-07-01T06:23:59;9.23;;;8.47;;
7883;SDS011;3987;51.458;7.238;2022-07-01T06:26:25;8.87;;;7.97;;
7883;SDS011;3987;51.458;7.238;2022-07-01T06:28:51;7.80;;;7.47;;
7883;SDS011;3987;51.458;7.238;2022-07-01T06:31:16;7.70;;;7.20;;
7883;SDS011;3987;51.458;7.238;2022-07-01T06:33:42;7.70;;;7.07;;
7883;SDS011;3987;51.458;7.238;2022-07-01T06:36:07;8.10;;;7.37;;
7883;SDS011;3987;51.458;7.238;2022-07-01T06:38:33;6.70;;;6.30;;
7883;SDS011;3987;51.458;7.238;2022-07-01T06:40:58;9.07;;;7.93;;
7883;SDS011;3987;51.458;7.238;2022-07-01T06:43:42;10.73;;;7.47;;
7883;SDS011;3987;51.458;7.238;2022-07-01T06:46:08;7.47;;;7.03;;
7883;SDS011;3987;51.458;7.238;2022-07-01T06:48:34;9.07;;;6.80;;
7883;SDS011;3987;51.458;7.238;2022-07-01T06:51:00;6.73;;;6.33;;
7883;SDS011;3987;51.458;7.238;2022-07-01T06:53:26;8.93;;;5.83;;
7883;SDS011;3987;51.458;7.238;2022-07-01T06:55:52;6.03;;;5.47;;
7883;SDS011;3987;51.458;7.238;2022-07-01T06:58:17;5.87;;;5.40;;
7883;SDS011;3987;51.458;7.238;2022-07-01T07:00:43;5.77;;;5.27;;
7883;SDS011;3987;51.458;7.238;2022-07-01T07:03:08;5.50;;;5.17;;
7883;SDS011;3987;51.458;7.238;2022-07-01T07:05:34;6.20;;;5.63;;
7883;SDS011;3987;51.458;7.238;2022-07-01T07:07:59;5.03;;;4.73;;
7883;SDS011;3987;51.458;7.238;2022-07-01T07:10:25;5.03;;;4.73;;
7883;SDS011;3987;51.458;7.238;2022-07-01T07:12:50;4.60;;;4.40;;
7883;SDS011;3987;51.458;7.238;2022-07-01T07:15:16;4.80;;;4.40;;
7883;SDS011;3987;51.458;7.238;2022-07-01T07:17:41;4.67;;;4.37;;
7883;SDS011;3987;51.458;7.238;2022-07-01T07:20:07;4.70;;;4.30;;
7883;SDS011;3987;51.458;7.238;2022-07-01T07:22:33;7.13;;;4.10;;
7883;SDS011;3987;51.458;7.238;2022-07-01T07:24:59;5.23;;;4.87;;
7883;SDS011;3987;51.458;7.238;2022-07-01T07:27:24;5.37;;;5.00;;
7883;SDS011;3987;51.458;7.238;2022-07-01T07:29:50;4.73;;;4.53;;
7883;SDS011;3987;51.458;7.238;2022-07-01T07:32:15;4.73;;;4.50;;
7883;SDS011;3987;51.458;7.238;2022-07-01T07:34:40;5.00;;;4.60;;
7883;SDS011;3987;51.458;7.238;2022-07-01T07:37:06;4.43;;;4.23;;
7883;SDS011;3987;51.458;7.238;2022-07-01T07:39:32;5.50;;;4.93;;
7883;SDS011;3987;51.458;7.238;2022-07-01T07:41:57;4.93;;;4.73;;
7883;SDS011;3987;51.458;7.238;2022-07-01T07:44:23;4.53;;;4.33;;
7883;SDS011;3987;51.458;7.238;2022-07-01T07:46:48;4.40;;;4.10;;
7883;SDS011;3987;51.458;7.238;2022-07-01T07:49:14;4.27;;;4.07;;
7883;SDS011;3987;51.458;7.238;2022-07-01T07:51:40;5.53;;;3.40;;
7883;SDS011;3987;51.458;7.238;2022-07-01T07:54:05;4.53;;;3.57;;
7883;SDS011;3987;51.458;7.238;2022-07-01T07:56:31;4.37;;;4.07;;
7883;SDS011;3987;51.458;7.238;2022-07-01T07:58:56;5.13;;;4.90;;
7883;SDS011;3987;51.458;7.238;2022-07-01T08:01:22;7.00;;;6.50;;
7883;SDS011;3987;51.458;7.238;2022-07-01T08:03:48;7.13;;;6.57;;
7883;SDS011;3987;51.458;7.238;2022-07-01T08:06:13;7.00;;;6.57;;
7883;SDS011;3987;51.458;7.238;2022-07-01T08:08:39;5.87;;;5.60;;
7883;SDS011;3987;51.458;7.238;2022-07-01T08:11:04;5.87;;;5.63;;
7883;SDS011;3987;51.458;7.238;2022-07-01T08:13:30;5.80;;;5.27;;
7883;SDS011;3987;51.458;7.238;2022-07-01T08:15:56;4.67;;;4.30;;
7883;SDS011;3987;51.458;7.238;2022-07-01T08:18:22;5.33;;;4.83;;
7883;SDS011;3987;51.458;7.238;2022-07-01T08:20:47;3.73;;;3.63;;
7883;SDS011;3987;51.458;7.238;2022-07-01T08:23:15;4.07;;;3.80;;
7883;SDS011;3987;51.458;7.238;2022-07-01T08:25:41;4.50;;;3.70;;
7883;SDS011;3987;51.458;7.238;2022-07-01T08:28:07;3.97;;;3.67;;
7883;SDS011;3987;51.458;7.238;2022-07-01T08:30:32;3.33;;;3.23;;
7883;SDS011;3987;51.458;7.238;2022-07-01T08:32:58;3.90;;;3.80;;
7883;SDS011;3987;51.458;7.238;2022-07-01T08:35:28;3.90;;;3.73;;
7883;SDS011;3987;51.458;7.238;2022-07-01T08:37:54;4.10;;;3.90;;
7883;SDS011;3987;51.458;7.238;2022-07-01T08:40:23;5.33;;;5.03;;
7883;SDS011;3987;51.458;7.238;2022-07-01T08:42:50;4.63;;;3.33;;
7883;SDS011;3987;51.458;7.238;2022-07-01T08:45:15;3.07;;;2.87;;
7883;SDS011;3987;51.458;7.238;2022-07-01T08:47:54;2.80;;;2.60;;
7883;SDS011;3987;51.458;7.238;2022-07-01T08:50:26;2.40;;;2.30;;
7883;SDS011;3987;51.458;7.238;2022-07-01T08:52:52;5.33;;;3.70;;
7883;SDS011;3987;51.458;7.238;2022-07-01T08:55:19;3.50;;;3.30;;
7883;SDS011;3987;51.458;7.238;2022-07-01T08:57:44;4.03;;;3.83;;
7883;SDS011;3987;51.458;7.238;2022-07-01T09:00:10;3.37;;;3.27;;
7883;SDS011;3987;51.458;7.238;2022-07-01T09:02:49;2.97;;;2.77;;
7883;SDS011;3987;51.458;7.238;2022-07-01T09:05:16;3.00;;;2.90;;
7883;SDS011;3987;51.458;7.238;2022-07-01T09:07:43;3.50;;;3.30;;
7883;SDS011;3987;51.458;7.238;2022-07-01T09:10:15;3.90;;;3.63;;
7883;SDS011;3987;51.458;7.238;2022-07-01T09:12:48;5.03;;;4.20;;
7883;SDS011;3987;51.458;7.238;2022-07-01T09:15:23;3.93;;;3.70;;
7883;SDS011;3987;51.458;7.238;2022-07-01T09:17:53;2.97;;;2.83;;
7883;SDS011;3987;51.458;7.238;2022-07-01T09:20:30;2.17;;;2.07;;
7883;SDS011;3987;51.458;7.238;2022-07-01T09:23:07;2.33;;;2.23;;
7883;SDS011;3987;51.458;7.238;2022-07-01T09:25:46;2.57;;;2.47;;
7883;SDS011;3987;51.458;7.238;2022-07-01T09:28:14;2.33;;;2.33;;
7883;SDS011;3987;51.458;7.238;2022-07-01T09:30:42;2.47;;;2.13;;
7883;SDS011;3987;51.458;7.238;2022-07-01T09:33:16;2.83;;;2.63;;
7883;SDS011;3987;51.458;7.238;2022-07-01T09:35:46;2.53;;;2.33;;
7883;SDS011;3987;51.458;7.238;2022-07-01T09:38:14;2.73;;;2.63;;
7883;SDS011;3987;51.458;7.238;2022-07-01T09:40:47;2.30;;;1.97;;
7883;SDS011;3987;51.458;7.238;2022-07-01T09:43:21;2.10;;;2.10;;
7883;SDS011;3987;51.458;7.238;2022-07-01T09:45:52;1.80;;;1.70;;
7883;SDS011;3987;51.458;7.238;2022-07-01T09:48:23;2.60;;;1.97;;
7883;SDS011;3987;51.458;7.238;2022-07-01T09:50:49;2.27;;;1.87;;
7883;SDS011;3987;51.458;7.238;2022-07-01T09:53:15;1.33;;;1.33;;
7883;SDS011;3987;51.458;7.238;2022-07-01T09:55:41;2.87;;;1.63;;
7883;SDS011;3987;51.458;7.238;2022-07-01T09:58:06;1.47;;;1.47;;
7883;SDS011;3987;51.458;7.238;2022-07-01T10:00:37;1.83;;;1.73;;
7883;SDS011;3987;51.458;7.238;2022-07-01T10:03:03;2.80;;;1.80;;
7883;SDS011;3987;51.458;7.238;2022-07-01T10:05:29;1.83;;;1.53;;
7883;SDS011;3987;51.458;7.238;2022-07-01T10:07:59;1.83;;;1.73;;
7883;SDS011;3987;51.458;7.238;2022-07-01T10:13:52;1.37;;;1.37;;
7883;SDS011;3987;51.458;7.238;2022-07-01T10:16:18;2.93;;;1.43;;
7883;SDS011;3987;51.458;7.238;2022-07-01T10:18:44;1.27;;;1.27;;
7883;SDS011;3987;51.458;7.238;2022-07-01T10:21:10;1.30;;;1.30;;
7883;SDS011;3987;51.458;7.238;2022-07-01T10:23:51;1.10;;;1.00;;
7883;SDS011;3987;51.458;7.238;2022-07-01T10:26:16;1.30;;;1.20;;
7883;SDS011;3987;51.458;7.238;2022-07-01T10:28:44;1.17;;;1.17;;
7883;SDS011;3987;51.458;7.238;2022-07-01T10:31:11;1.23;;;1.13;;
7883;SDS011;3987;51.458;7.238;2022-07-01T10:41:46;2.30;;;1.07;;
7883;SDS011;3987;51.458;7.238;2022-07-01T10:44:19;0.70;;;0.70;;
7883;SDS011;3987;51.458;7.238;2022-07-01T10:46:47;1.37;;;1.00;;
7883;SDS011;3987;51.458;7.238;2022-07-01T10:49:16;1.20;;;1.10;;
7883;SDS011;3987;51.458;7.238;2022-07-01T10:51:51;1.17;;;0.87;;
7883;SDS011;3987;51.458;7.238;2022-07-01T10:59:45;1.00;;;1.00;;
7883;SDS011;3987;51.458;7.238;2022-07-01T11:04:52;1.60;;;0.80;;
7883;SDS011;3987;51.458;7.238;2022-07-01T11:07:19;0.60;;;0.60;;
7883;SDS011;3987;51.458;7.238;2022-07-01T11:09:44;0.80;;;0.80;;
7883;SDS011;3987;51.458;7.238;2022-07-01T11:12:10;1.90;;;0.80;;
7883;SDS011;3987;51.458;7.238;2022-07-01T11:14:36;0.70;;;0.60;;
7883;SDS011;3987;51.458;7.238;2022-07-01T11:17:02;3.30;;;0.50;;
7883;SDS011;3987;51.458;7.238;2022-07-01T11:19:29;1.43;;;0.50;;
7883;SDS011;3987;51.458;7.238;2022-07-01T11:21:54;2.50;;;0.60;;
7883;SDS011;3987;51.458;7.238;2022-07-01T11:24:21;1.03;;;0.40;;
7883;SDS011;3987;51.458;7.238;2022-07-01T11:26:47;0.40;;;0.40;;
7883;SDS011;3987;51.458;7.238;2022-07-01T11:29:13;0.37;;;0.37;;
7883;SDS011;3987;51.458;7.238;2022-07-01T11:31:40;1.60;;;0.40;;
7883;SDS011;3987;51.458;7.238;2022-07-01T11:34:05;1.90;;;0.30;;
7883;SDS011;3987;51.458;7.238;2022-07-01T11:36:32;0.83;;;0.30;;
7883;SDS011;3987;51.458;7.238;2022-07-01T11:39:18;0.60;;;0.60;;
7883;SDS011;3987;51.458;7.238;2022-07-01T11:41:47;2.83;;;0.30;;
7883;SDS011;3987;51.458;7.238;2022-07-01T11:44:12;0.60;;;0.30;;
7883;SDS011;3987;51.458;7.238;2022-07-01T11:46:38;0.73;;;0.47;;
7883;SDS011;3987;51.458;7.238;2022-07-01T11:49:10;1.23;;;0.60;;
7883;SDS011;3987;51.458;7.238;2022-07-01T11:51:37;1.23;;;0.50;;
7883;SDS011;3987;51.458;7.238;2022-07-01T11:54:03;0.37;;;0.37;;
7883;SDS011;3987;51.458;7.238;2022-07-01T11:56:33;0.73;;;0.57;;
7883;SDS011;3987;51.458;7.238;2022-07-01T11:59:03;0.50;;;0.50;;
7883;SDS011;3987;51.458;7.238;2022-07-01T12:01:29;0.60;;;0.40;;
7883;SDS011;3987;51.458;7.238;2022-07-01T12:03:57;0.60;;;0.60;;
7883;SDS011;3987;51.458;7.238;2022-07-01T12:06:24;1.10;;;0.50;;
7883;SDS011;3987;51.458;7.238;2022-07-01T12:08:50;1.33;;;0.40;;
7883;SDS011;3987;51.458;7.238;2022-07-01T12:11:17;2.67;;;0.40;;
7883;SDS011;3987;51.458;7.238;2022-07-01T12:13:46;2.37;;;0.60;;
7883;SDS011;3987;51.458;7.238;2022-07-01T12:16:12;1.70;;;0.40;;
7883;SDS011;3987;51.458;7.238;2022-07-01T12:18:38;0.93;;;0.70;;
7883;SDS011;3987;51.458;7.238;2022-07-01T12:21:04;0.73;;;0.60;;
7883;SDS011;3987;51.458;7.238;2022-07-01T12:23:29;0.40;;;0.40;;
7883;SDS011;3987;51.458;7.238;2022-07-01T12:25:57;1.07;;;0.53;;
7883;SDS011;3987;51.458;7.238;2022-07-01T12:31:19;0.50;;;0.50;;
7883;SDS011;3987;51.458;7.238;2022-07-01T12:33:48;1.03;;;0.50;;
7883;SDS011;3987;51.458;7.238;2022-07-01T12:36:14;0.83;;;0.77;;
7883;SDS011;3987;51.458;7.238;2022-07-01T12:38:41;0.90;;;0.70;;
7883;SDS011;3987;51.458;7.238;2022-07-01T12:44:04;0.90;;;0.57;;
7883;SDS011;3987;51.458;7.238;2022-07-01T12:46:31;0.50;;;0.50;;
7883;SDS011;3987;51.458;7.238;2022-07-01T12:48:57;2.13;;;0.60;;
7883;SDS011;3987;51.458;7.238;2022-07-01T12:51:33;1.03;;;0.50;;
7883;SDS011;3987;51.458;7.238;2022-07-01T12:53:59;0.90;;;0.50;;
7883;SDS011;3987;51.458;7.238;2022-07-01T12:56:26;1.47;;;0.60;;
7883;SDS011;3987;51.458;7.238;2022-07-01T12:58:52;0.50;;;0.50;;
7883;SDS011;3987;51.458;7.238;2022-07-01T13:01:18;0.50;;;0.37;;
7883;SDS011;3987;51.458;7.238;2022-07-01T13:03:44;0.90;;;0.50;;
7883;SDS011;3987;51.458;7.238;2022-07-01T13:06:10;0.40;;;0.40;;
7883;SDS011;3987;51.458;7.238;2022-07-01T13:08:36;3.13;;;0.40;;
7883;SDS011;3987;51.458;7.238;2022-07-01T13:11:01;1.93;;;0.50;;
7883;SDS011;3987;51.458;7.238;2022-07-01T13:13:27;0.97;;;0.40;;
7883;SDS011;3987;51.458;7.238;2022-07-01T13:15:52;0.70;;;0.40;;
7883;SDS011;3987;51.458;7.238;2022-07-01T13:18:17;0.40;;;0.30;;
7883;SDS011;3987;51.458;7.238;2022-07-01T13:20:43;0.70;;;0.30;;
7883;SDS011;3987;51.458;7.238;2022-07-01T13:23:11;0.30;;;0.30;;
7883;SDS011;3987;51.458;7.238;2022-07-01T13:25:36;2.27;;;0.40;;
7883;SDS011;3987;51.458;7.238;2022-07-01T13:28:02;0.93;;;0.30;;
7883;SDS011;3987;51.458;7.238;2022-07-01T13:30:28;0.50;;;0.30;;
7883;SDS011;3987;51.458;7.238;2022-07-01T13:32:54;1.53;;;0.20;;
7883;SDS011;3987;51.458;7.238;2022-07-01T13:35:19;0.30;;;0.30;;
7883;SDS011;3987;51.458;7.238;2022-07-01T13:37:46;0.97;;;0.30;;
7883;SDS011;3987;51.458;7.238;2022-07-01T13:40:12;0.77;;;0.30;;
7883;SDS011;3987;51.458;7.238;2022-07-01T13:42:37;1.80;;;0.40;;
7883;SDS011;3987;51.458;7.238;2022-07-01T13:45:03;2.13;;;0.43;;
7883;SDS011;3987;51.458;7.238;2022-07-01T13:47:29;0.30;;;0.30;;
7883;SDS011;3987;51.458;7.238;2022-07-01T13:49:55;0.40;;;0.20;;
7883;SDS011;3987;51.458;7.238;2022-07-01T13:52:20;0.30;;;0.30;;
7883;SDS011;3987;51.458;7.238;2022-07-01T13:54:46;0.30;;;0.20;;
7883;SDS011;3987;51.458;7.238;2022-07-01T13:57:12;0.43;;;0.43;;
7883;SDS011;3987;51.458;7.238;2022-07-01T13:59:38;0.40;;;0.33;;
7883;SDS011;3987;51.458;7.238;2022-07-01T14:02:07;0.60;;;0.47;;
7883;SDS011;3987;51.458;7.238;2022-07-01T14:04:33;0.37;;;0.37;;
7883;SDS011;3987;51.458;7.238;2022-07-01T14:06:59;1.40;;;0.40;;
7883;SDS011;3987;51.458;7.238;2022-07-01T14:09:24;1.53;;;0.40;;
7883;SDS011;3987;51.458;7.238;2022-07-01T14:11:49;0.73;;;0.57;;
7883;SDS011;3987;51.458;7.238;2022-07-01T14:14:15;0.43;;;0.30;;
7883;SDS011;3987;51.458;7.238;2022-07-01T14:16:41;0.40;;;0.30;;
7883;SDS011;3987;51.458;7.238;2022-07-01T14:19:06;0.97;;;0.40;;
7883;SDS011;3987;51.458;7.238;2022-07-01T14:21:32;2.13;;;0.43;;
7883;SDS011;3987;51.458;7.238;2022-07-01T14:23:57;0.50;;;0.30;;
7883;SDS011;3987;51.458;7.238;2022-07-01T14:26:23;0.20;;;0.20;;
7883;SDS011;3987;51.458;7.238;2022-07-01T14:28:48;3.47;;;0.30;;
7883;SDS011;3987;51.458;7.238;2022-07-01T14:31:14;0.60;;;0.43;;
7883;SDS011;3987;51.458;7.238;2022-07-01T14:33:39;0.80;;;0.47;;
7883;SDS011;3987;51.458;7.238;2022-07-01T14:36:04;0.60;;;0.40;;
7883;SDS011;3987;51.458;7.238;2022-07-01T14:38:30;0.43;;;0.40;;
7883;SDS011;3987;51.458;7.238;2022-07-01T14:40:55;0.30;;;0.30;;
7883;SDS011;3987;51.458;7.238;2022-07-01T14:43:21;0.80;;;0.40;;
7883;SDS011;3987;51.458;7.238;2022-07-01T14:45:46;0.30;;;0.30;;
7883;SDS011;3987;51.458;7.238;2022-07-01T14:48:12;0.77;;;0.40;;
7883;SDS011;3987;51.458;7.238;2022-07-01T14:50:37;1.60;;;0.50;;
7883;SDS011;3987;51.458;7.238;2022-07-01T14:53:05;0.93;;;0.23;;
7883;SDS011;3987;51.458;7.238;2022-07-01T14:55:33;1.57;;;0.50;;
7883;SDS011;3987;51.458;7.238;2022-07-01T14:57:58;0.30;;;0.30;;
7883;SDS011;3987;51.458;7.238;2022-07-01T15:00:24;2.97;;;0.37;;
7883;SDS011;3987;51.458;7.238;2022-07-01T15:02:50;0.63;;;0.50;;
7883;SDS011;3987;51.458;7.238;2022-07-01T15:05:16;2.40;;;0.50;;
7883;SDS011;3987;51.458;7.238;2022-07-01T15:07:41;0.60;;;0.50;;
7883;SDS011;3987;51.458;7.238;2022-07-01T15:10:07;0.27;;;0.23;;
7883;SDS011;3987;51.458;7.238;2022-07-01T15:12:33;0.83;;;0.40;;
7883;SDS011;3987;51.458;7.238;2022-07-01T15:14:58;0.93;;;0.57;;
7883;SDS011;3987;51.458;7.238;2022-07-01T15:17:24;0.47;;;0.47;;
7883;SDS011;3987;51.458;7.238;2022-07-01T15:19:50;0.50;;;0.50;;
7883;SDS011;3987;51.458;7.238;2022-07-01T15:22:15;0.97;;;0.60;;
7883;SDS011;3987;51.458;7.238;2022-07-01T15:24:41;0.43;;;0.43;;
7883;SDS011;3987;51.458;7.238;2022-07-01T15:27:07;0.83;;;0.50;;
7883;SDS011;3987;51.458;7.238;2022-07-01T15:29:33;1.23;;;0.50;;
7883;SDS011;3987;51.458;7.238;2022-07-01T15:31:58;0.70;;;0.60;;